createdAt,value
2019-03-22T00:02:35.494Z,99.90
2019-03-22T00:06:42.297Z,99.90
2019-03-22T00:10:48.544Z,99.90
2019-03-22T00:14:54.814Z,99.90
2019-03-22T00:19:01.330Z,99.90
2019-03-22T00:23:07.584Z,99.90
2019-03-22T00:27:16.739Z,99.90
2019-03-22T00:31:21.803Z,99.90
2019-03-22T00:35:27.978Z,99.90
2019-03-22T00:39:34.513Z,99.90
2019-03-22T00:43:40.767Z,99.90
2019-03-22T00:47:47.051Z,99.90
2019-03-22T00:51:53.381Z,99.90
2019-03-22T00:55:59.641Z,99.90
2019-03-22T01:00:06.896Z,99.90
2019-03-22T01:04:13.148Z,99.90
2019-03-22T01:08:19.639Z,99.90
2019-03-22T01:12:25.897Z,99.90
2019-03-22T01:16:32.152Z,99.90
2019-03-22T01:20:38.702Z,99.90
2019-03-22T01:24:44.969Z,99.90
2019-03-22T01:28:51.214Z,99.90
2019-03-22T01:32:57.401Z,99.90
2019-03-22T01:37:03.665Z,99.90
2019-03-22T01:41:10.424Z,99.90
2019-03-22T01:45:18.183Z,99.90
2019-03-22T01:49:24.375Z,99.90
2019-03-22T01:53:30.621Z,99.90
2019-03-22T01:57:36.875Z,99.90
2019-03-22T02:01:43.142Z,99.90
2019-03-22T02:05:49.303Z,99.90
2019-03-22T02:09:55.710Z,99.90
2019-03-22T02:14:01.804Z,99.90
2019-03-22T02:18:08.453Z,99.90
2019-03-22T02:22:14.693Z,99.90
2019-03-22T02:26:20.969Z,99.90
2019-03-22T02:30:27.215Z,99.90
2019-03-22T02:34:33.424Z,99.90
2019-03-22T02:38:39.675Z,99.90
2019-03-22T02:42:46.146Z,99.90
2019-03-22T02:46:52.296Z,99.90
2019-03-22T02:50:58.851Z,99.90
2019-03-22T02:55:05.593Z,99.90
2019-03-22T02:59:11.964Z,99.90
2019-03-22T03:03:18.221Z,99.90
2019-03-22T03:07:24.489Z,99.90
2019-03-22T03:11:31.043Z,99.90
2019-03-22T03:15:37.327Z,99.90
2019-03-22T03:23:49.363Z,99.90
2019-03-22T03:27:55.601Z,99.90
2019-03-22T03:32:01.884Z,99.90
2019-03-22T03:36:08.190Z,99.90
2019-03-22T03:40:15.031Z,99.90
2019-03-22T03:44:21.298Z,99.90
2019-03-22T03:48:27.496Z,99.90
2019-03-22T03:52:33.750Z,99.90
2019-03-22T03:56:40.019Z,99.90
2019-03-22T04:00:46.265Z,99.90
2019-03-22T04:04:52.515Z,99.90
2019-03-22T04:08:58.815Z,99.90
2019-03-22T04:13:05.053Z,99.90
2019-03-22T04:17:11.335Z,99.90
2019-03-22T04:21:17.569Z,99.90
2019-03-22T04:25:23.848Z,99.90
2019-03-22T04:29:30.131Z,99.90
2019-03-22T04:33:36.312Z,99.90
2019-03-22T04:37:42.588Z,99.90
2019-03-22T04:41:48.876Z,99.90
2019-03-22T04:45:57.012Z,99.90
2019-03-22T04:50:03.837Z,99.90
2019-03-22T04:54:11.191Z,99.90
2019-03-22T04:58:19.619Z,99.90
2019-03-22T05:02:26.522Z,99.90
2019-03-22T05:06:35.834Z,99.90
2019-03-22T05:10:42.524Z,99.90
2019-03-22T05:14:49.837Z,99.90
2019-03-22T05:18:59.142Z,99.90
2019-03-22T05:23:07.010Z,99.90
2019-03-22T05:27:14.607Z,99.90
2019-03-22T05:32:00.003Z,99.90
2019-03-22T05:36:06.265Z,99.90
2019-03-22T05:40:12.617Z,99.90
2019-03-22T05:44:19.263Z,99.90
2019-03-22T05:48:25.604Z,99.90
2019-03-22T05:52:31.810Z,99.90
2019-03-22T05:56:38.229Z,99.90
2019-03-22T06:00:44.428Z,99.90
2019-03-22T06:04:50.707Z,99.90
2019-03-22T06:08:57.219Z,99.90
2019-03-22T06:13:03.464Z,99.90
2019-03-22T06:17:09.659Z,99.90
2019-03-22T06:21:15.988Z,99.90
2019-03-22T06:25:22.191Z,99.90
2019-03-22T06:29:28.533Z,99.90
2019-03-22T06:33:34.805Z,99.90
2019-03-22T06:37:41.159Z,99.90
2019-03-22T06:41:47.440Z,99.90
2019-03-22T06:45:53.906Z,99.90
2019-03-22T06:50:00.420Z,99.90
2019-03-22T06:54:07.115Z,99.90
2019-03-22T06:58:13.428Z,99.90
2019-03-22T07:02:19.583Z,99.90
2019-03-22T07:06:28.444Z,99.90
2019-03-22T07:10:35.342Z,99.90
2019-03-22T07:14:41.701Z,99.90
2019-03-22T07:18:47.900Z,99.90
2019-03-22T07:22:54.161Z,99.90
2019-03-22T07:27:00.475Z,99.90
2019-03-22T07:31:06.852Z,99.90
2019-03-22T07:35:13.117Z,99.90
2019-03-22T07:39:19.910Z,99.90
2019-03-22T07:43:26.657Z,99.90
2019-03-22T07:47:32.913Z,99.90
2019-03-22T07:51:39.278Z,99.90
2019-03-22T07:55:45.958Z,99.90
2019-03-22T07:59:52.587Z,99.90
2019-03-22T08:03:59.487Z,99.90
2019-03-22T08:08:05.758Z,99.90
2019-03-22T08:12:12.273Z,99.90
2019-03-22T08:16:18.371Z,99.90
2019-03-22T08:20:24.679Z,99.90
2019-03-22T08:24:30.969Z,99.90
2019-03-22T08:28:37.627Z,99.90
2019-03-22T08:32:44.198Z,99.90
2019-03-22T08:36:51.457Z,99.90
2019-03-22T08:40:57.715Z,99.90
2019-03-22T08:45:04.245Z,99.90
2019-03-22T08:49:10.553Z,99.90
2019-03-22T08:53:16.714Z,99.90
2019-03-22T08:57:24.931Z,99.90
2019-03-22T09:01:31.511Z,99.90
2019-03-22T09:05:38.186Z,99.90
2019-03-22T09:09:44.543Z,99.90
2019-03-22T09:13:53.570Z,99.90
2019-03-22T09:17:58.498Z,99.90
2019-03-22T09:22:05.012Z,99.90
2019-03-22T09:26:11.350Z,99.90
2019-03-22T09:30:17.985Z,99.90
2019-03-22T09:34:33.485Z,99.90
2019-03-22T09:38:32.609Z,99.90
2019-03-22T09:42:38.886Z,99.90
2019-03-22T09:46:45.063Z,98.90
2019-03-22T09:50:51.318Z,99.90
2019-03-22T09:54:57.775Z,99.90
2019-03-22T09:59:04.074Z,99.40
2019-03-22T10:03:10.240Z,99.10
2019-03-22T10:07:16.449Z,98.80
2019-03-22T10:11:22.740Z,96.00
2019-03-22T10:15:29.023Z,96.10
2019-03-22T10:19:35.510Z,95.30
2019-03-22T10:23:41.595Z,95.00
2019-03-22T10:27:48.257Z,95.30
2019-03-22T10:31:54.568Z,94.90
2019-03-22T10:36:00.825Z,95.60
2019-03-22T10:40:08.084Z,93.00
2019-03-22T10:44:14.239Z,92.70
2019-03-22T10:48:20.517Z,94.20
2019-03-22T10:52:26.615Z,93.10
2019-03-22T10:56:32.892Z,92.50
2019-03-22T11:00:39.221Z,92.00
2019-03-22T11:04:45.529Z,93.10
2019-03-22T11:08:51.813Z,91.80
2019-03-22T11:12:58.008Z,91.30
2019-03-22T11:17:04.308Z,92.50
2019-03-22T11:21:10.848Z,90.80
2019-03-22T11:25:17.108Z,88.30
2019-03-22T11:29:23.320Z,87.40
2019-03-22T11:33:29.614Z,85.50
2019-03-22T11:37:35.829Z,86.90
2019-03-22T11:41:42.108Z,89.90
2019-03-22T11:45:48.606Z,90.20
2019-03-22T11:49:55.463Z,87.30
2019-03-22T11:54:01.690Z,83.80
2019-03-22T11:58:07.968Z,81.50
2019-03-22T12:02:22.173Z,84.90
2019-03-22T12:06:23.108Z,83.60
2019-03-22T12:10:29.529Z,76.70
2019-03-22T12:14:35.789Z,74.90
2019-03-22T12:18:42.105Z,68.30
2019-03-22T12:22:48.475Z,73.90
2019-03-22T12:26:54.664Z,65.20
2019-03-22T12:31:01.246Z,65.70
2019-03-22T12:35:09.967Z,64.60
2019-03-22T12:39:16.391Z,61.80
2019-03-22T12:43:22.717Z,72.10
2019-03-22T12:47:29.405Z,55.30
2019-03-22T12:51:35.733Z,71.40
2019-03-22T12:55:42.148Z,62.60
2019-03-22T12:59:48.450Z,54.60
2019-03-22T13:03:54.835Z,64.70
2019-03-22T13:08:01.200Z,63.60
2019-03-22T13:12:07.625Z,64.60
2019-03-22T13:16:14.175Z,56.90
2019-03-22T13:20:20.420Z,62.80
2019-03-22T13:24:27.851Z,59.60
2019-03-22T13:28:34.092Z,54.20
2019-03-22T13:32:40.509Z,57.80
2019-03-22T13:36:46.992Z,56.20
2019-03-22T13:40:53.573Z,52.90
2019-03-22T13:44:59.832Z,51.20
2019-03-22T13:49:06.455Z,47.30
2019-03-22T13:53:12.750Z,46.10
2019-03-22T13:57:18.995Z,50.00
2019-03-22T14:01:25.217Z,49.00
2019-03-22T14:05:31.559Z,44.80
2019-03-22T14:09:37.850Z,44.80
2019-03-22T14:13:44.617Z,44.00
2019-03-22T14:17:50.884Z,49.70
2019-03-22T14:21:57.009Z,42.90
2019-03-22T14:26:03.373Z,42.90
2019-03-22T14:30:10.389Z,42.60
2019-03-22T14:34:19.902Z,40.70
2019-03-22T14:38:26.356Z,37.50
2019-03-22T14:42:32.719Z,41.80
2019-03-22T14:46:39.045Z,42.60
2019-03-22T14:50:45.384Z,39.10
2019-03-22T14:54:51.633Z,42.20
2019-03-22T14:58:57.805Z,36.10
2019-03-22T15:03:06.121Z,38.50
2019-03-22T15:07:19.507Z,33.80
2019-03-22T15:11:20.960Z,38.00
2019-03-22T15:15:54.832Z,39.40
2019-03-22T15:20:32.608Z,37.60
2019-03-22T15:24:57.607Z,38.30
2019-03-22T15:29:22.009Z,37.40
2019-03-22T15:33:50.580Z,37.60
2019-03-22T15:38:27.719Z,40.10
2019-03-22T15:42:34.002Z,35.60
2019-03-22T15:46:40.337Z,38.40
2019-03-22T15:50:46.607Z,39.60
2019-03-22T15:54:52.915Z,39.10
2019-03-22T15:58:59.282Z,39.20
2019-03-22T16:03:06.635Z,41.40
2019-03-22T16:07:12.883Z,38.30
2019-03-22T16:11:19.119Z,39.40
2019-03-22T16:15:36.723Z,40.40
2019-03-22T16:19:46.138Z,39.70
2019-03-22T16:23:52.473Z,42.90
2019-03-22T16:27:59.283Z,39.40
2019-03-22T16:32:05.630Z,40.60
2019-03-22T16:36:12.248Z,40.30
2019-03-22T16:40:24.044Z,40.90
2019-03-22T16:44:26.852Z,41.90
2019-03-22T16:48:33.626Z,41.60
2019-03-22T16:52:39.849Z,45.20
2019-03-22T16:56:46.042Z,49.00
2019-03-22T17:00:52.396Z,48.30
2019-03-22T17:04:58.630Z,52.80
2019-03-22T17:09:06.057Z,54.40
2019-03-22T17:13:12.590Z,58.70
2019-03-22T17:17:18.876Z,59.60
2019-03-22T17:21:25.166Z,65.40
2019-03-22T17:25:31.474Z,64.10
2019-03-22T17:29:37.755Z,71.80
2019-03-22T17:33:43.960Z,76.40
2019-03-22T17:37:50.176Z,79.10
2019-03-22T17:41:56.462Z,74.30
2019-03-22T17:46:02.641Z,78.70
2019-03-22T17:50:09.344Z,81.60
2019-03-22T17:54:15.565Z,81.60
2019-03-22T17:58:21.653Z,84.80
2019-03-22T18:02:27.889Z,86.40
2019-03-22T18:06:34.355Z,89.50
2019-03-22T18:10:40.639Z,91.40
2019-03-22T18:14:46.806Z,90.20
2019-03-22T18:18:53.060Z,91.20
2019-03-22T18:22:59.330Z,91.60
2019-03-22T18:27:05.633Z,92.10
2019-03-22T18:31:11.898Z,92.40
2019-03-22T18:35:18.141Z,93.00
2019-03-22T18:39:24.564Z,92.70
2019-03-22T18:43:30.821Z,93.90
2019-03-22T18:47:37.056Z,94.30
2019-03-22T18:51:43.234Z,94.30
2019-03-22T18:55:49.452Z,94.70
2019-03-22T18:59:55.727Z,95.20
2019-03-22T19:04:01.895Z,95.30
2019-03-22T19:08:08.152Z,95.20
2019-03-22T19:12:14.464Z,95.10
2019-03-22T19:16:20.838Z,95.50
2019-03-22T19:20:27.101Z,96.40
2019-03-22T19:24:33.278Z,96.30
2019-03-22T19:28:39.635Z,96.60
2019-03-22T19:32:45.888Z,97.00
2019-03-22T19:36:52.204Z,97.80
2019-03-22T19:40:58.735Z,98.30
2019-03-22T19:45:05.995Z,98.70
2019-03-22T19:49:12.673Z,98.40
2019-03-22T19:53:18.932Z,99.30
2019-03-22T19:57:25.203Z,99.40
2019-03-22T20:01:31.513Z,99.10
2019-03-22T20:05:38.255Z,99.90
2019-03-22T20:09:44.446Z,99.80
2019-03-22T20:13:50.712Z,99.90
2019-03-22T20:17:56.918Z,99.90
2019-03-22T20:22:03.393Z,99.90
2019-03-22T20:26:09.642Z,99.90
2019-03-22T20:30:16.574Z,99.90
2019-03-22T20:34:22.776Z,99.90
2019-03-22T20:38:29.318Z,99.90
2019-03-22T20:42:35.998Z,99.90
2019-03-22T20:46:42.266Z,99.90
2019-03-22T20:50:48.649Z,99.90
2019-03-22T20:54:55.019Z,99.90
2019-03-22T20:59:01.092Z,99.90
2019-03-22T21:03:07.396Z,99.90
2019-03-22T21:07:13.678Z,99.90
2019-03-22T21:11:20.370Z,99.90
2019-03-22T21:15:26.847Z,99.90
2019-03-22T21:19:33.601Z,99.90
2019-03-22T21:23:39.912Z,99.90
2019-03-22T21:27:46.348Z,99.90
2019-03-22T21:31:52.845Z,99.90
2019-03-22T21:35:59.538Z,99.90
2019-03-22T21:40:06.701Z,99.90
2019-03-22T21:44:13.362Z,99.90
2019-03-22T21:48:19.757Z,99.90
2019-03-22T21:52:25.927Z,99.90
2019-03-22T21:56:32.408Z,99.90
2019-03-22T22:00:39.033Z,99.90
2019-03-22T22:04:45.390Z,99.90
2019-03-22T22:08:51.707Z,99.90
2019-03-22T22:12:58.195Z,99.90
2019-03-22T22:17:04.646Z,99.90
2019-03-22T22:21:10.951Z,99.90
2019-03-22T22:25:17.308Z,99.90
2019-03-22T22:29:25.044Z,99.90
2019-03-22T22:33:31.730Z,99.90
2019-03-22T22:37:38.303Z,99.90
2019-03-22T22:41:44.776Z,99.90
2019-03-22T22:45:51.838Z,99.90
2019-03-22T22:49:58.064Z,99.90
2019-03-22T22:54:04.317Z,99.90
2019-03-22T22:58:10.838Z,99.90
2019-03-22T23:02:18.133Z,99.90
2019-03-22T23:06:24.817Z,99.90
2019-03-22T23:10:31.203Z,99.90
2019-03-22T23:14:37.947Z,99.90
2019-03-22T23:18:44.717Z,99.90
2019-03-22T23:22:51.049Z,99.90
2019-03-22T23:26:57.349Z,99.90
2019-03-22T23:31:03.810Z,99.90
2019-03-22T23:35:11.135Z,99.90
2019-03-22T23:39:17.398Z,99.90
2019-03-22T23:43:23.744Z,99.90
2019-03-22T23:47:30.077Z,99.90
2019-03-22T23:51:36.355Z,99.90
2019-03-22T23:55:42.602Z,99.90
2019-03-22T23:59:48.894Z,99.90
